sensor_id;sensor_type;location;lat;lon;timestamp;pressure;altitude;pressure_sealevel;temperature;humidity
12781;BME280;6454;43.304;24.344;2024-01-07T00:01:15;98851.19;;;4.37;81.02
12781;BME280;6454;43.304;24.344;2024-01-07T00:03:41;98857.03;;;4.44;80.50
12781;BME280;6454;43.304;24.344;2024-01-07T00:06:07;98854.53;;;4.34;81.34
12781;BME280;6454;43.304;24.344;2024-01-07T00:08:33;98865.38;;;4.47;81.18
12781;BME280;6454;43.304;24.344;2024-01-07T00:10:58;98848.69;;;4.40;80.56
12781;BME280;6454;43.304;24.344;2024-01-07T00:13:24;98852.16;;;4.54;80.94
12781;BME280;6454;43.304;24.344;2024-01-07T00:15:49;98840.59;;;4.49;80.29
12781;BME280;6454;43.304;24.344;2024-01-07T00:18:15;98841.16;;;4.59;80.97
12781;BME280;6454;43.304;24.344;2024-01-07T00:20:40;98817.94;;;4.53;81.13
12781;BME280;6454;43.304;24.344;2024-01-07T00:23:06;98839.06;;;4.56;81.45
12781;BME280;6454;43.304;24.344;2024-01-07T00:25:31;98828.88;;;4.62;81.72
12781;BME280;6454;43.304;24.344;2024-01-07T00:27:56;98829.53;;;4.67;81.20
12781;BME280;6454;43.304;24.344;2024-01-07T00:30:22;98822.50;;;4.66;81.50
12781;BME280;6454;43.304;24.344;2024-01-07T00:32:47;98828.94;;;4.70;81.40
12781;BME280;6454;43.304;24.344;2024-01-07T00:35:16;98817.56;;;4.68;81.12
12781;BME280;6454;43.304;24.344;2024-01-07T00:37:41;98848.81;;;4.57;81.16
12781;BME280;6454;43.304;24.344;2024-01-07T00:40:07;98830.69;;;4.66;82.06
12781;BME280;6454;43.304;24.344;2024-01-07T00:42:33;98835.63;;;4.64;82.88
12781;BME280;6454;43.304;24.344;2024-01-07T00:44:58;98808.97;;;4.75;83.39
12781;BME280;6454;43.304;24.344;2024-01-07T00:47:24;98823.44;;;4.84;83.89
12781;BME280;6454;43.304;24.344;2024-01-07T00:49:49;98806.31;;;4.84;83.13
12781;BME280;6454;43.304;24.344;2024-01-07T00:52:15;98806.69;;;4.91;83.28
12781;BME280;6454;43.304;24.344;2024-01-07T00:54:41;98813.00;;;5.00;83.22
12781;BME280;6454;43.304;24.344;2024-01-07T00:57:06;98812.25;;;5.08;83.21
12781;BME280;6454;43.304;24.344;2024-01-07T00:59:31;98785.88;;;4.95;82.97
12781;BME280;6454;43.304;24.344;2024-01-07T01:01:57;98786.06;;;4.98;83.27
12781;BME280;6454;43.304;24.344;2024-01-07T01:04:22;98774.28;;;5.11;83.35
12781;BME280;6454;43.304;24.344;2024-01-07T01:06:48;98766.94;;;5.12;81.72
12781;BME280;6454;43.304;24.344;2024-01-07T01:09:13;98788.78;;;5.20;82.52
12781;BME280;6454;43.304;24.344;2024-01-07T01:11:39;98801.16;;;5.26;82.09
12781;BME280;6454;43.304;24.344;2024-01-07T01:14:04;98776.94;;;5.25;81.96
12781;BME280;6454;43.304;24.344;2024-01-07T01:16:30;98762.03;;;5.22;82.08
12781;BME280;6454;43.304;24.344;2024-01-07T01:18:55;98769.63;;;5.34;81.73
12781;BME280;6454;43.304;24.344;2024-01-07T01:21:21;98754.53;;;5.28;80.89
12781;BME280;6454;43.304;24.344;2024-01-07T01:23:46;98739.56;;;5.17;81.15
12781;BME280;6454;43.304;24.344;2024-01-07T01:26:12;98750.06;;;5.32;81.04
12781;BME280;6454;43.304;24.344;2024-01-07T01:28:38;98735.94;;;5.30;80.62
12781;BME280;6454;43.304;24.344;2024-01-07T01:31:03;98735.94;;;5.30;80.32
12781;BME280;6454;43.304;24.344;2024-01-07T01:33:28;98736.47;;;5.32;80.62
12781;BME280;6454;43.304;24.344;2024-01-07T01:35:54;98726.34;;;5.24;80.03
12781;BME280;6454;43.304;24.344;2024-01-07T01:38:19;98741.38;;;5.30;79.58
12781;BME280;6454;43.304;24.344;2024-01-07T01:40:54;98736.41;;;5.23;79.67
12781;BME280;6454;43.304;24.344;2024-01-07T01:43:26;98714.44;;;5.20;79.84
12781;BME280;6454;43.304;24.344;2024-01-07T01:45:53;98735.59;;;5.23;79.70
12781;BME280;6454;43.304;24.344;2024-01-07T01:48:19;98717.13;;;5.11;80.80
12781;BME280;6454;43.304;24.344;2024-01-07T01:50:46;98725.81;;;5.13;80.27
12781;BME280;6454;43.304;24.344;2024-01-07T01:53:12;98735.56;;;5.14;80.56
12781;BME280;6454;43.304;24.344;2024-01-07T01:55:37;98708.66;;;5.13;80.38
12781;BME280;6454;43.304;24.344;2024-01-07T01:58:04;98712.50;;;5.12;79.49
12781;BME280;6454;43.304;24.344;2024-01-07T02:00:30;98711.53;;;5.08;79.95
12781;BME280;6454;43.304;24.344;2024-01-07T02:02:55;98697.06;;;4.99;79.40
12781;BME280;6454;43.304;24.344;2024-01-07T02:05:21;98702.50;;;4.99;80.25
12781;BME280;6454;43.304;24.344;2024-01-07T02:07:47;98697.34;;;4.89;81.13
12781;BME280;6454;43.304;24.344;2024-01-07T02:10:13;98676.56;;;4.70;81.88
12781;BME280;6454;43.304;24.344;2024-01-07T02:12:38;98678.81;;;4.68;81.96
12781;BME280;6454;43.304;24.344;2024-01-07T02:15:04;98687.50;;;4.79;81.46
12781;BME280;6454;43.304;24.344;2024-01-07T02:17:30;98689.94;;;4.80;81.21
12781;BME280;6454;43.304;24.344;2024-01-07T02:19:55;98684.31;;;4.77;81.53
12781;BME280;6454;43.304;24.344;2024-01-07T02:22:21;98679.19;;;4.75;81.46
12781;BME280;6454;43.304;24.344;2024-01-07T02:24:46;98667.44;;;4.66;81.79
12781;BME280;6454;43.304;24.344;2024-01-07T02:27:12;98677.28;;;4.54;82.61
12781;BME280;6454;43.304;24.344;2024-01-07T02:29:37;98678.94;;;4.63;82.07
12781;BME280;6454;43.304;24.344;2024-01-07T02:32:03;98677.31;;;4.62;81.45
12781;BME280;6454;43.304;24.344;2024-01-07T02:34:28;98664.47;;;4.32;83.29
12781;BME280;6454;43.304;24.344;2024-01-07T02:36:54;98662.50;;;4.46;82.14
12781;BME280;6454;43.304;24.344;2024-01-07T02:39:19;98669.63;;;4.56;82.37
12781;BME280;6454;43.304;24.344;2024-01-07T02:41:45;98660.91;;;4.45;82.55
12781;BME280;6454;43.304;24.344;2024-01-07T02:44:11;98657.06;;;4.46;82.86
12781;BME280;6454;43.304;24.344;2024-01-07T02:46:36;98657.44;;;4.53;82.40
12781;BME280;6454;43.304;24.344;2024-01-07T02:49:01;98642.03;;;4.49;82.21
12781;BME280;6454;43.304;24.344;2024-01-07T02:51:27;98641.13;;;4.53;82.22
12781;BME280;6454;43.304;24.344;2024-01-07T02:53:53;98611.59;;;4.38;82.61
12781;BME280;6454;43.304;24.344;2024-01-07T02:56:18;98616.66;;;4.31;83.10
12781;BME280;6454;43.304;24.344;2024-01-07T02:58:44;98624.06;;;4.39;82.72
12781;BME280;6454;43.304;24.344;2024-01-07T03:01:09;98625.03;;;4.43;82.59
12781;BME280;6454;43.304;24.344;2024-01-07T03:03:35;98623.19;;;4.52;81.87
12781;BME280;6454;43.304;24.344;2024-01-07T03:06:00;98621.41;;;4.48;82.38
12781;BME280;6454;43.304;24.344;2024-01-07T03:08:26;98632.63;;;4.55;82.23
12781;BME280;6454;43.304;24.344;2024-01-07T03:10:53;98609.16;;;4.59;82.59
12781;BME280;6454;43.304;24.344;2024-01-07T03:13:18;98612.78;;;4.54;82.08
12781;BME280;6454;43.304;24.344;2024-01-07T03:15:44;98605.47;;;4.33;83.09
12781;BME280;6454;43.304;24.344;2024-01-07T03:18:09;98621.22;;;4.44;83.00
12781;BME280;6454;43.304;24.344;2024-01-07T03:20:34;98616.78;;;4.48;82.43
12781;BME280;6454;43.304;24.344;2024-01-07T03:23:00;98591.66;;;4.51;82.76
12781;BME280;6454;43.304;24.344;2024-01-07T03:25:26;98582.41;;;4.52;83.11
12781;BME280;6454;43.304;24.344;2024-01-07T03:27:51;98589.44;;;4.53;82.65
12781;BME280;6454;43.304;24.344;2024-01-07T03:30:17;98565.09;;;4.48;82.27
12781;BME280;6454;43.304;24.344;2024-01-07T03:32:42;98578.44;;;4.58;82.07
12781;BME280;6454;43.304;24.344;2024-01-07T03:35:08;98560.16;;;4.50;82.25
12781;BME280;6454;43.304;24.344;2024-01-07T03:37:36;98570.41;;;4.53;82.88
12781;BME280;6454;43.304;24.344;2024-01-07T03:40:02;98561.13;;;4.54;82.47
12781;BME280;6454;43.304;24.344;2024-01-07T03:42:27;98559.16;;;4.46;82.27
12781;BME280;6454;43.304;24.344;2024-01-07T03:44:53;98554.72;;;4.50;82.54
12781;BME280;6454;43.304;24.344;2024-01-07T03:47:18;98543.22;;;4.53;81.88
12781;BME280;6454;43.304;24.344;2024-01-07T03:49:44;98563.88;;;4.63;81.98
12781;BME280;6454;43.304;24.344;2024-01-07T03:52:09;98564.19;;;4.61;82.36
12781;BME280;6454;43.304;24.344;2024-01-07T03:54:35;98539.72;;;4.61;81.97
12781;BME280;6454;43.304;24.344;2024-01-07T03:57:00;98553.00;;;4.63;81.95
12781;BME280;6454;43.304;24.344;2024-01-07T03:59:25;98556.28;;;4.51;82.50
12781;BME280;6454;43.304;24.344;2024-01-07T04:01:56;98552.81;;;4.59;82.19
12781;BME280;6454;43.304;24.344;2024-01-07T04:04:22;98559.16;;;4.46;82.68
12781;BME280;6454;43.304;24.344;2024-01-07T04:06:48;98545.41;;;4.51;82.72
12781;BME280;6454;43.304;24.344;2024-01-07T04:09:13;98529.09;;;4.51;82.83
12781;BME280;6454;43.304;24.344;2024-01-07T04:11:40;98530.00;;;4.38;83.18
12781;BME280;6454;43.304;24.344;2024-01-07T04:14:06;98534.47;;;4.34;83.76
12781;BME280;6454;43.304;24.344;2024-01-07T04:16:31;98532.38;;;4.31;84.15
12781;BME280;6454;43.304;24.344;2024-01-07T04:18:57;98506.03;;;4.40;83.53
12781;BME280;6454;43.304;24.344;2024-01-07T04:21:22;98510.44;;;4.58;82.97
12781;BME280;6454;43.304;24.344;2024-01-07T04:23:47;98502.56;;;4.48;83.55
12781;BME280;6454;43.304;24.344;2024-01-07T04:26:13;98499.06;;;4.65;82.49
12781;BME280;6454;43.304;24.344;2024-01-07T04:28:41;98494.09;;;4.58;82.68
12781;BME280;6454;43.304;24.344;2024-01-07T04:31:07;98487.72;;;4.63;83.00
12781;BME280;6454;43.304;24.344;2024-01-07T04:33:32;98491.72;;;4.65;82.77
12781;BME280;6454;43.304;24.344;2024-01-07T04:35:58;98495.91;;;4.71;82.31
12781;BME280;6454;43.304;24.344;2024-01-07T04:38:28;98499.06;;;4.65;82.46
12781;BME280;6454;43.304;24.344;2024-01-07T04:40:54;98500.34;;;4.67;83.01
12781;BME280;6454;43.304;24.344;2024-01-07T04:43:19;98495.56;;;4.64;82.56
12781;BME280;6454;43.304;24.344;2024-01-07T04:45:45;98489.66;;;4.71;82.32
12781;BME280;6454;43.304;24.344;2024-01-07T04:48:10;98482.28;;;4.71;82.56
12781;BME280;6454;43.304;24.344;2024-01-07T04:50:36;98491.25;;;4.72;82.59
12781;BME280;6454;43.304;24.344;2024-01-07T04:53:02;98487.06;;;4.66;82.94
12781;BME280;6454;43.304;24.344;2024-01-07T04:55:29;98487.59;;;4.76;81.93
12781;BME280;6454;43.304;24.344;2024-01-07T04:57:55;98475.13;;;4.75;82.30
12781;BME280;6454;43.304;24.344;2024-01-07T05:00:20;98477.97;;;4.70;82.56
12781;BME280;6454;43.304;24.344;2024-01-07T05:02:46;98473.16;;;4.76;82.42
12781;BME280;6454;43.304;24.344;2024-01-07T05:05:11;98472.56;;;4.88;82.02
12781;BME280;6454;43.304;24.344;2024-01-07T05:07:37;98478.63;;;4.85;82.27
12781;BME280;6454;43.304;24.344;2024-01-07T05:10:03;98474.16;;;4.80;82.33
12781;BME280;6454;43.304;24.344;2024-01-07T05:12:28;98467.44;;;4.86;82.16
12781;BME280;6454;43.304;24.344;2024-01-07T05:14:54;98462.31;;;4.85;82.65
12781;BME280;6454;43.304;24.344;2024-01-07T05:17:19;98463.09;;;4.76;83.01
12781;BME280;6454;43.304;24.344;2024-01-07T05:19:45;98457.34;;;4.78;83.02
12781;BME280;6454;43.304;24.344;2024-01-07T05:22:10;98457.34;;;4.87;82.85
12781;BME280;6454;43.304;24.344;2024-01-07T05:24:38;98434.78;;;4.77;82.27
12781;BME280;6454;43.304;24.344;2024-01-07T05:27:04;98456.56;;;4.95;82.32
12781;BME280;6454;43.304;24.344;2024-01-07T05:29:29;98468.41;;;4.99;82.64
12781;BME280;6454;43.304;24.344;2024-01-07T05:31:55;98448.09;;;4.96;82.34
12781;BME280;6454;43.304;24.344;2024-01-07T05:34:21;98445.66;;;4.95;81.92
12781;BME280;6454;43.304;24.344;2024-01-07T05:36:46;98444.25;;;4.97;82.31
12781;BME280;6454;43.304;24.344;2024-01-07T05:39:12;98438.31;;;5.04;81.99
12781;BME280;6454;43.304;24.344;2024-01-07T05:41:38;98434.78;;;4.86;82.60
12781;BME280;6454;43.304;24.344;2024-01-07T05:44:06;98437.31;;;4.65;83.95
12781;BME280;6454;43.304;24.344;2024-01-07T05:46:33;98462.16;;;4.90;82.97
12781;BME280;6454;43.304;24.344;2024-01-07T05:48:58;98447.59;;;4.86;82.92
12781;BME280;6454;43.304;24.344;2024-01-07T05:51:24;98450.28;;;4.77;83.37
12781;BME280;6454;43.304;24.344;2024-01-07T05:53:49;98445.53;;;4.91;82.58
12781;BME280;6454;43.304;24.344;2024-01-07T05:56:15;98461.06;;;5.08;82.63
12781;BME280;6454;43.304;24.344;2024-01-07T05:58:40;98443.75;;;5.04;82.41
12781;BME280;6454;43.304;24.344;2024-01-07T06:01:07;98444.22;;;5.06;82.66
12781;BME280;6454;43.304;24.344;2024-01-07T06:03:33;98421.50;;;4.93;82.89
12781;BME280;6454;43.304;24.344;2024-01-07T06:05:59;98436.56;;;5.08;82.60
12781;BME280;6454;43.304;24.344;2024-01-07T06:08:25;98426.78;;;5.07;82.66
12781;BME280;6454;43.304;24.344;2024-01-07T06:10:53;98428.56;;;4.94;82.92
12781;BME280;6454;43.304;24.344;2024-01-07T06:13:19;98443.75;;;5.04;83.17
12781;BME280;6454;43.304;24.344;2024-01-07T06:15:45;98435.28;;;4.97;82.78
12781;BME280;6454;43.304;24.344;2024-01-07T06:18:10;98452.28;;;5.11;82.25
12781;BME280;6454;43.304;24.344;2024-01-07T06:20:36;98447.13;;;5.18;82.12
12781;BME280;6454;43.304;24.344;2024-01-07T06:23:01;98435.13;;;5.19;81.60
12781;BME280;6454;43.304;24.344;2024-01-07T06:25:27;98435.13;;;5.19;82.22
12781;BME280;6454;43.304;24.344;2024-01-07T06:27:52;98438.00;;;5.14;82.33
12781;BME280;6454;43.304;24.344;2024-01-07T06:30:18;98467.47;;;5.12;82.72
12781;BME280;6454;43.304;24.344;2024-01-07T06:32:53;98462.84;;;5.21;82.49
12781;BME280;6454;43.304;24.344;2024-01-07T06:35:21;98459.78;;;5.14;82.62
12781;BME280;6454;43.304;24.344;2024-01-07T06:37:46;98477.72;;;5.15;83.20
12781;BME280;6454;43.304;24.344;2024-01-07T06:40:12;98487.34;;;5.21;83.18
12781;BME280;6454;43.304;24.344;2024-01-07T06:42:40;98481.91;;;5.29;82.71
12781;BME280;6454;43.304;24.344;2024-01-07T06:45:06;98448.88;;;4.97;84.30
12781;BME280;6454;43.304;24.344;2024-01-07T06:47:32;98452.72;;;4.96;84.62
12781;BME280;6454;43.304;24.344;2024-01-07T06:50:00;98453.19;;;4.98;84.05
12781;BME280;6454;43.304;24.344;2024-01-07T06:52:28;98455.91;;;4.80;85.09
12781;BME280;6454;43.304;24.344;2024-01-07T06:54:56;98445.97;;;4.85;85.16
12781;BME280;6454;43.304;24.344;2024-01-07T06:57:21;98430.59;;;4.71;84.88
12781;BME280;6454;43.304;24.344;2024-01-07T06:59:47;98451.25;;;4.90;84.92
12781;BME280;6454;43.304;24.344;2024-01-07T07:02:12;98441.66;;;4.75;85.62
12781;BME280;6454;43.304;24.344;2024-01-07T07:04:37;98456.06;;;4.84;85.46
12781;BME280;6454;43.304;24.344;2024-01-07T07:07:06;98480.59;;;5.01;84.76
12781;BME280;6454;43.304;24.344;2024-01-07T07:09:31;98511.50;;;5.05;84.41
12781;BME280;6454;43.304;24.344;2024-01-07T07:12:02;98517.59;;;5.11;84.11
12781;BME280;6454;43.304;24.344;2024-01-07T07:14:27;98533.16;;;5.19;83.99
12781;BME280;6454;43.304;24.344;2024-01-07T07:16:53;98522.72;;;5.12;83.53
12781;BME280;6454;43.304;24.344;2024-01-07T07:19:18;98525.94;;;5.23;83.31
12781;BME280;6454;43.304;24.344;2024-01-07T07:21:44;98526.09;;;5.18;83.53
12781;BME280;6454;43.304;24.344;2024-01-07T07:24:10;98509.09;;;5.04;83.97
12781;BME280;6454;43.304;24.344;2024-01-07T07:26:35;98543.88;;;5.24;84.50
12781;BME280;6454;43.304;24.344;2024-01-07T07:29:05;98535.53;;;5.20;84.51
12781;BME280;6454;43.304;24.344;2024-01-07T07:31:31;98527.06;;;5.13;84.53
12781;BME280;6454;43.304;24.344;2024-01-07T07:33:56;98523.69;;;5.08;84.63
12781;BME280;6454;43.304;24.344;2024-01-07T07:36:22;98531.06;;;5.16;85.63
12781;BME280;6454;43.304;24.344;2024-01-07T07:38:47;98528.63;;;5.14;84.94
12781;BME280;6454;43.304;24.344;2024-01-07T07:41:12;98521.78;;;5.25;84.94
12781;BME280;6454;43.304;24.344;2024-01-07T07:43:38;98525.00;;;5.45;84.49
12781;BME280;6454;43.304;24.344;2024-01-07T07:46:04;98525.16;;;5.48;84.25
12781;BME280;6454;43.304;24.344;2024-01-07T07:48:29;98502.38;;;5.44;82.89
12781;BME280;6454;43.304;24.344;2024-01-07T07:50:55;98506.88;;;5.57;83.11
12781;BME280;6454;43.304;24.344;2024-01-07T07:53:20;98505.44;;;5.51;83.10
12781;BME280;6454;43.304;24.344;2024-01-07T07:55:45;98490.06;;;5.47;83.27
12781;BME280;6454;43.304;24.344;2024-01-07T07:58:11;98481.75;;;5.52;83.83
12781;BME280;6454;43.304;24.344;2024-01-07T08:00:39;98492.78;;;5.55;83.76
12781;BME280;6454;43.304;24.344;2024-01-07T08:03:04;98489.09;;;5.60;83.59
12781;BME280;6454;43.304;24.344;2024-01-07T08:05:30;98489.25;;;5.63;83.35
12781;BME280;6454;43.304;24.344;2024-01-07T08:07:55;98465.34;;;5.60;83.74
12781;BME280;6454;43.304;24.344;2024-01-07T08:10:21;98467.13;;;5.65;82.79
12781;BME280;6454;43.304;24.344;2024-01-07T08:12:48;98466.81;;;5.49;83.98
12781;BME280;6454;43.304;24.344;2024-01-07T08:15:17;98456.53;;;5.63;84.14
12781;BME280;6454;43.304;24.344;2024-01-07T08:17:42;98470.00;;;5.68;82.45
12781;BME280;6454;43.304;24.344;2024-01-07T08:20:09;98484.59;;;5.72;83.27
12781;BME280;6454;43.304;24.344;2024-01-07T08:22:35;98483.97;;;5.67;83.13
12781;BME280;6454;43.304;24.344;2024-01-07T08:25:03;98487.00;;;5.65;83.28
12781;BME280;6454;43.304;24.344;2024-01-07T08:27:28;98496.59;;;5.71;83.11
12781;BME280;6454;43.304;24.344;2024-01-07T08:29:54;98495.50;;;5.72;82.86
12781;BME280;6454;43.304;24.344;2024-01-07T08:32:19;98503.97;;;5.79;83.00
12781;BME280;6454;43.304;24.344;2024-01-07T08:34:47;98495.50;;;5.55;83.96
12781;BME280;6454;43.304;24.344;2024-01-07T08:37:13;98481.22;;;5.58;83.88
12781;BME280;6454;43.304;24.344;2024-01-07T08:39:38;98470.66;;;5.65;83.71
12781;BME280;6454;43.304;24.344;2024-01-07T08:42:04;98480.88;;;5.77;83.09
12781;BME280;6454;43.304;24.344;2024-01-07T08:44:30;98467.28;;;5.68;83.93
12781;BME280;6454;43.304;24.344;2024-01-07T08:46:55;98442.78;;;5.60;84.46
12781;BME280;6454;43.304;24.344;2024-01-07T08:49:21;98442.25;;;5.75;83.36
12781;BME280;6454;43.304;24.344;2024-01-07T08:51:46;98453.78;;;5.80;83.13
12781;BME280;6454;43.304;24.344;2024-01-07T08:54:12;98445.94;;;5.87;84.05
12781;BME280;6454;43.304;24.344;2024-01-07T08:56:37;98443.06;;;5.84;82.91
12781;BME280;6454;43.304;24.344;2024-01-07T08:59:04;98438.09;;;5.77;83.38
12781;BME280;6454;43.304;24.344;2024-01-07T09:01:30;98429.75;;;5.74;83.17
12781;BME280;6454;43.304;24.344;2024-01-07T09:03:55;98423.34;;;5.78;82.90
12781;BME280;6454;43.304;24.344;2024-01-07T09:06:21;98426.69;;;5.92;82.66
12781;BME280;6454;43.304;24.344;2024-01-07T09:08:46;98437.91;;;5.99;81.95
12781;BME280;6454;43.304;24.344;2024-01-07T09:11:12;98411.63;;;5.95;81.96
12781;BME280;6454;43.304;24.344;2024-01-07T09:13:38;98419.47;;;5.96;83.03
12781;BME280;6454;43.304;24.344;2024-01-07T09:16:05;98417.69;;;6.01;82.44
12781;BME280;6454;43.304;24.344;2024-01-07T09:18:30;98424.75;;;6.02;82.60
12781;BME280;6454;43.304;24.344;2024-01-07T09:20:56;98445.56;;;6.06;82.00
12781;BME280;6454;43.304;24.344;2024-01-07T09:23:22;98442.75;;;5.85;83.54
12781;BME280;6454;43.304;24.344;2024-01-07T09:25:47;98434.88;;;5.84;83.51
12781;BME280;6454;43.304;24.344;2024-01-07T09:28:14;98440.16;;;5.80;84.05
12781;BME280;6454;43.304;24.344;2024-01-07T09:30:40;98430.72;;;5.86;83.26
12781;BME280;6454;43.304;24.344;2024-01-07T09:33:05;98415.94;;;5.79;82.92
12781;BME280;6454;43.304;24.344;2024-01-07T09:35:30;98404.88;;;5.92;82.64
12781;BME280;6454;43.304;24.344;2024-01-07T09:37:56;98412.53;;;6.08;82.43
12781;BME280;6454;43.304;24.344;2024-01-07T09:40:21;98421.78;;;6.15;82.69
12781;BME280;6454;43.304;24.344;2024-01-07T09:42:47;98417.66;;;6.09;82.47
12781;BME280;6454;43.304;24.344;2024-01-07T09:45:13;98441.03;;;6.19;82.45
12781;BME280;6454;43.304;24.344;2024-01-07T09:47:44;98450.31;;;6.26;83.04
12781;BME280;6454;43.304;24.344;2024-01-07T09:50:11;98464.56;;;6.32;82.06
12781;BME280;6454;43.304;24.344;2024-01-07T09:52:38;98449.03;;;6.24;82.71
12781;BME280;6454;43.304;24.344;2024-01-07T09:55:05;98468.25;;;6.36;82.11
12781;BME280;6454;43.304;24.344;2024-01-07T09:57:34;98468.41;;;6.31;83.42
12781;BME280;6454;43.304;24.344;2024-01-07T10:00:00;98468.25;;;6.36;83.71
12781;BME280;6454;43.304;24.344;2024-01-07T10:02:26;98458.00;;;6.33;83.36
12781;BME280;6454;43.304;24.344;2024-01-07T10:04:51;98456.09;;;6.25;82.24
12781;BME280;6454;43.304;24.344;2024-01-07T10:07:17;98470.66;;;6.29;84.37
12781;BME280;6454;43.304;24.344;2024-01-07T10:09:43;98471.63;;;6.33;84.41
12781;BME280;6454;43.304;24.344;2024-01-07T10:12:09;98466.00;;;6.38;83.50
12781;BME280;6454;43.304;24.344;2024-01-07T10:14:35;98467.31;;;6.23;84.39
12781;BME280;6454;43.304;24.344;2024-01-07T10:17:00;98456.75;;;6.22;83.90
12781;BME280;6454;43.304;24.344;2024-01-07T10:19:26;98462.13;;;6.39;84.34
12781;BME280;6454;43.304;24.344;2024-01-07T10:22:02;98448.97;;;6.41;82.91
12781;BME280;6454;43.304;24.344;2024-01-07T10:24:38;98439.00;;;6.45;82.38
12781;BME280;6454;43.304;24.344;2024-01-07T10:27:04;98448.88;;;6.58;82.54
12781;BME280;6454;43.304;24.344;2024-01-07T10:29:30;98439.56;;;6.59;82.49
12781;BME280;6454;43.304;24.344;2024-01-07T10:31:57;98437.25;;;6.70;81.21
12781;BME280;6454;43.304;24.344;2024-01-07T10:34:23;98444.59;;;6.78;81.35
12781;BME280;6454;43.304;24.344;2024-01-07T10:36:51;98437.66;;;6.80;81.43
12781;BME280;6454;43.304;24.344;2024-01-07T10:39:19;98439.06;;;6.86;80.44
12781;BME280;6454;43.304;24.344;2024-01-07T10:41:45;98460.06;;;6.94;80.70
12781;BME280;6454;43.304;24.344;2024-01-07T10:44:11;98452.66;;;6.95;80.06
12781;BME280;6454;43.304;24.344;2024-01-07T10:46:37;98458.84;;;7.04;81.26
12781;BME280;6454;43.304;24.344;2024-01-07T10:49:09;98449.88;;;7.03;79.99
12781;BME280;6454;43.304;24.344;2024-01-07T10:51:36;98449.22;;;7.06;81.09
12781;BME280;6454;43.304;24.344;2024-01-07T10:54:01;98435.88;;;7.05;80.74
12781;BME280;6454;43.304;24.344;2024-01-07T10:56:39;98440.03;;;7.11;80.57
12781;BME280;6454;43.304;24.344;2024-01-07T10:59:05;98429.91;;;7.11;80.46
12781;BME280;6454;43.304;24.344;2024-01-07T11:01:32;98417.78;;;7.00;80.80
12781;BME280;6454;43.304;24.344;2024-01-07T11:04:08;98447.50;;;7.23;78.79
12781;BME280;6454;43.304;24.344;2024-01-07T11:06:49;98448.41;;;7.27;79.35
12781;BME280;6454;43.304;24.344;2024-01-07T11:09:23;98455.94;;;7.30;79.69
12781;BME280;6454;43.304;24.344;2024-01-07T11:11:52;98428.47;;;7.26;80.18
12781;BME280;6454;43.304;24.344;2024-01-07T11:14:39;98443.47;;;7.41;80.70
12781;BME280;6454;43.304;24.344;2024-01-07T11:17:07;98433.06;;;7.34;80.72
12781;BME280;6454;43.304;24.344;2024-01-07T11:19:35;98432.28;;;7.34;80.55
12781;BME280;6454;43.304;24.344;2024-01-07T11:24:56;98428.69;;;7.42;78.60
12781;BME280;6454;43.304;24.344;2024-01-07T11:27:22;98433.66;;;7.40;79.68
12781;BME280;6454;43.304;24.344;2024-01-07T11:30:02;98426.88;;;7.46;78.81
12781;BME280;6454;43.304;24.344;2024-01-07T11:32:29;98428.25;;;7.52;80.05
12781;BME280;6454;43.304;24.344;2024-01-07T11:34:55;98417.63;;;7.38;80.47
12781;BME280;6454;43.304;24.344;2024-01-07T11:37:22;98422.66;;;7.48;79.54
12781;BME280;6454;43.304;24.344;2024-01-07T11:39:54;98429.38;;;7.51;78.83
12781;BME280;6454;43.304;24.344;2024-01-07T11:42:20;98436.69;;;7.47;78.58
12781;BME280;6454;43.304;24.344;2024-01-07T11:44:52;98429.81;;;7.41;80.25
12781;BME280;6454;43.304;24.344;2024-01-07T11:47:19;98425.06;;;7.50;79.94
12781;BME280;6454;43.304;24.344;2024-01-07T11:49:45;98424.81;;;7.43;78.52
12781;BME280;6454;43.304;24.344;2024-01-07T11:52:10;98422.13;;;7.55;78.84
12781;BME280;6454;43.304;24.344;2024-01-07T11:54:37;98418.50;;;7.63;78.64
12781;BME280;6454;43.304;24.344;2024-01-07T11:57:04;98423.69;;;7.76;77.47
12781;BME280;6454;43.304;24.344;2024-01-07T11:59:30;98426.88;;;7.78;78.69
12781;BME280;6454;43.304;24.344;2024-01-07T12:01:55;98427.22;;;7.89;78.76
12781;BME280;6454;43.304;24.344;2024-01-07T12:04:21;98410.59;;;7.82;77.83
12781;BME280;6454;43.304;24.344;2024-01-07T12:06:48;98410.81;;;7.89;78.46
12781;BME280;6454;43.304;24.344;2024-01-07T12:09:13;98413.13;;;7.99;78.30
12781;BME280;6454;43.304;24.344;2024-01-07T12:11:42;98402.94;;;7.75;77.88
12781;BME280;6454;43.304;24.344;2024-01-07T12:14:08;98402.72;;;7.80;77.55
12781;BME280;6454;43.304;24.344;2024-01-07T12:16:36;98406.28;;;7.93;77.34
12781;BME280;6454;43.304;24.344;2024-01-07T12:19:01;98408.34;;;7.96;77.53
12781;BME280;6454;43.304;24.344;2024-01-07T12:21:27;98418.72;;;7.91;77.62
12781;BME280;6454;43.304;24.344;2024-01-07T12:23:55;98410.59;;;7.94;77.21
12781;BME280;6454;43.304;24.344;2024-01-07T12:26:28;98406.53;;;8.00;77.43
12781;BME280;6454;43.304;24.344;2024-01-07T12:28:55;98416.78;;;8.03;78.44
12781;BME280;6454;43.304;24.344;2024-01-07T12:31:23;98402.88;;;8.08;78.16
12781;BME280;6454;43.304;24.344;2024-01-07T12:33:48;98405.63;;;8.08;77.56
12781;BME280;6454;43.304;24.344;2024-01-07T12:36:14;98408.47;;;8.12;78.12
12781;BME280;6454;43.304;24.344;2024-01-07T12:38:40;98406.66;;;8.04;77.70
12781;BME280;6454;43.304;24.344;2024-01-07T12:41:06;98415.88;;;8.11;78.34
12781;BME280;6454;43.304;24.344;2024-01-07T12:43:31;98415.66;;;8.04;77.70
12781;BME280;6454;43.304;24.344;2024-01-07T12:45:57;98420.41;;;7.95;77.86
12781;BME280;6454;43.304;24.344;2024-01-07T12:48:26;98440.94;;;8.13;77.97
12781;BME280;6454;43.304;24.344;2024-01-07T12:50:51;98449.16;;;8.13;78.59
12781;BME280;6454;43.304;24.344;2024-01-07T12:53:18;98447.22;;;8.14;79.19
12781;BME280;6454;43.304;24.344;2024-01-07T12:55:43;98453.06;;;8.12;78.94
12781;BME280;6454;43.304;24.344;2024-01-07T12:58:09;98456.03;;;8.19;77.45
12781;BME280;6454;43.304;24.344;2024-01-07T13:00:34;98442.22;;;8.16;76.98
12781;BME280;6454;43.304;24.344;2024-01-07T13:03:00;98450.31;;;8.24;78.58
12781;BME280;6454;43.304;24.344;2024-01-07T13:05:26;98462.81;;;8.34;77.41
12781;BME280;6454;43.304;24.344;2024-01-07T13:07:51;98454.81;;;8.41;78.18